Flight Track Log - Related Links

Times and Time Zones

All times are in EDT time to prevent confusion due to time zone crossing. See the EJM918 flight status page for this flight to view local times or setup timezone preferences in your user account.


Time Position Orientation Groundspeed Altitude Reporting Facility
EDT Latitude Longitude Course Direction KTS MPH feet Rate Location/Type
Fri 11:02:00 AM 43.7710 -70.2045 29° Northeast  Level FlightAware Approximate
Fri 11:03:00 AM 43.7938 -70.1871 29° Northeast  Level FlightAware Approximate
Fri 11:04:00 AM 43.8166 -70.1697 29° Northeast  Level FlightAware Approximate
Fri 11:05:00 AM 43.8394 -70.1523 29° Northeast  Level FlightAware Approximate
Fri 11:06:00 AM 43.8622 -70.1348 29° Northeast  Level FlightAware Approximate
Fri 11:07:00 AM 43.8849 -70.1173 29° Northeast  Level FlightAware Approximate
Fri 11:08:00 AM 43.9077 -70.0999 29° Northeast  Level FlightAware Approximate
Fri 11:09:00 AM 43.9305 -70.0824 29° Northeast  Level FlightAware Approximate
Fri 11:10:00 AM 43.9533 -70.0649 29° Northeast  Level FlightAware Approximate
Fri 11:11:00 AM 43.9760 -70.0473 29° Northeast  Level FlightAware Approximate
Fri 11:12:00 AM 43.9988 -70.0298 29° Northeast  Level FlightAware Approximate
Fri 11:13:00 AM 44.0215 -70.0123 29° Northeast  Level FlightAware Approximate
Fri 11:14:00 AM 44.0443 -69.9947 29° Northeast  Level FlightAware Approximate
Fri 11:15:00 AM 44.0671 -69.9771 29° Northeast  Level FlightAware Approximate
Fri 11:16:00 AM 44.0898 -69.9595 29° Northeast  Level FlightAware Approximate
Fri 11:17:00 AM 44.1125 -69.9419 29° Northeast  Level FlightAware Approximate
Fri 11:18:00 AM 44.1353 -69.9243 29° Northeast  Level FlightAware Approximate
Fri 11:19:00 AM 44.1580 -69.9067 29° Northeast  Level FlightAware Approximate
Fri 11:20:00 AM 44.1828 -69.9000 North  Level FlightAware Approximate
Fri 11:21:00 AM 44.2041 -69.8793 36° Northeast  Level FlightAware Approximate
Fri 11:22:00 AM 44.2252 -69.8581 36° Northeast  Level FlightAware Approximate
Fri 11:23:00 AM 44.2464 -69.8370 36° Northeast  Level FlightAware Approximate
Fri 11:24:00 AM 44.2690 -69.8191 28° Northeast  Level FlightAware Approximate
Fri 11:25:00 AM 44.2919 -69.8019 28° Northeast  Level FlightAware Approximate
Fri 11:26:00 AM 44.3149 -69.7847 28° Northeast  Level FlightAware Approximate
Fri 11:27:00 AM 44.3167 -69.7833 28° Northeast  Level FlightAware Approximate
Fri 11:28:00 AM 44.3206 -69.7973 28° Northeast  Level Estimated
Fri 11:29:00 AM 44.3206 -69.7973 28° Northeast  Level Estimated
Fri 11:30:00 AM 44.3206 -69.7973 28° Northeast  Level Estimated
Fri 11:31:00 AM 44.3206 -69.7973 28° Northeast  Level Estimated
Fri 11:32:00 AM 44.3206 -69.7973 28° Northeast  Level Estimated
Fri 11:33:00 AM 44.3206 -69.7973 28° Northeast  Level Estimated
Fri 11:34:00 AM 44.3206 -69.7973 28° Northeast  Level Estimated
Fri 11:35:00 AM 44.3206 -69.7973 28° Northeast  Level Estimated
Fri 11:36:00 AM 44.3206 -69.7973 28° Northeast  Level Estimated
Fri 11:37:00 AM 44.3206 -69.7973 28° Northeast  Level Estimated
Fri 11:38:00 AM 44.3206 -69.7973 28° Northeast  Level Estimated
Fri 11:39:00 AM 44.3206 -69.7973 28° Northeast  Level Estimated
Fri 11:40:00 AM 44.3206 -69.7973 28° Northeast  Level Estimated
Fri 11:41:00 AM 44.3206 -69.7973 28° Northeast  Level Estimated
Fri 11:42:00 AM 44.3206 -69.7973 28° Northeast  Level Estimated

Login

Don't have an account? Register now (free) for customized features, flight alerts, and more!